»·PEaware :: N149CD KVNY-L26

N149CD :: KVNY-L26

FLIGHT INFORMATION

Flight Status: Arrived
Operator: Privately registered:
United States
More flights under this callsign
Pilot: Nathan E. (30132)
Aircraft: CESSNA 172 SKYHAWK
(C172)
More flights by this aircraft type
Origin: KVNY Van Nuys
United States
Destination: L26 Hesperia
United States
More flights between these airports :: More routes between these airports
Route: NUAL1 IPIHO V518 PMD V386 APLES
File this flight plan on PilotEdge
Remarks: Would like to practice NEWHALL ONE SID
Altitude:
(Current/Filed)
7,000ft
Speed:
(Current/Filed)
110kts
Departed: 28-Aug-20 11:33 AM
Arrived: 28-Aug-20 12:21 PM
Distance/Time
Traveled:
59nm/0:48
Distance/Time
To Go:
Arrived

Flight Plot

Page will automatically refresh every two minutes.

Flight plan parsing failed; only flown route is shown


Map Options




Map Legend


Flown Route
Filed Route
Departure Airport
Arrival Airport
Navaid (VOR, NDB)
Fix

Horizontal Profiles

Position Reports

Time Latitude Longitude Heading Altitude Ground
Speed
28-Aug-20 11:16 34.215503 -118.498557 2 806ft 0kts
28-Aug-20 11:17 34.215503 -118.498557 2 806ft 0kts
28-Aug-20 11:18 34.215503 -118.498557 2 806ft 0kts
28-Aug-20 11:19 34.215503 -118.498557 2 806ft 0kts
28-Aug-20 11:20 34.215503 -118.498557 2 806ft 0kts
28-Aug-20 11:21 34.215503 -118.498557 2 806ft 0kts
28-Aug-20 11:22 34.215503 -118.498557 2 806ft 0kts
28-Aug-20 11:23 34.215503 -118.498557 2 806ft 0kts
28-Aug-20 11:24 34.215503 -118.498557 2 806ft 0kts
28-Aug-20 11:25 34.215503 -118.498557 2 806ft 0kts
28-Aug-20 11:26 34.217528 -118.496347 45 806ft 12kts
28-Aug-20 11:27 34.217510 -118.492275 355 806ft 12kts
28-Aug-20 11:28 34.218971 -118.492965 89 806ft 0kts
28-Aug-20 11:29 34.218971 -118.492965 89 806ft 0kts
28-Aug-20 11:30 34.218971 -118.492965 89 806ft 0kts
28-Aug-20 11:31 34.218385 -118.491190 175 806ft 17kts
28-Aug-20 11:32 34.199394 -118.489817 174 1264ft 77kts
28-Aug-20 11:33 34.178880 -118.485878 129 1979ft 73kts
28-Aug-20 11:34 34.166890 -118.466538 125 2677ft 71kts
28-Aug-20 11:35 34.160809 -118.445950 53 3320ft 78kts
28-Aug-20 11:36 34.184177 -118.444094 3 3923ft 88kts
28-Aug-20 11:37 34.208634 -118.446043 3 4546ft 88kts
28-Aug-20 11:38 34.233168 -118.448071 4 5171ft 89kts
28-Aug-20 11:39 34.258153 -118.450150 5 5765ft 90kts
28-Aug-20 11:40 34.283495 -118.452269 5 6333ft 92kts
28-Aug-20 11:41 34.309589 -118.454457 6 6879ft 94kts
28-Aug-20 11:42 34.339926 -118.456855 4 7023ft 120kts
28-Aug-20 11:43 34.371172 -118.459319 346 7022ft 107kts
28-Aug-20 11:44 34.396555 -118.436610 43 7029ft 123kts
28-Aug-20 11:45 34.418122 -118.404127 46 7038ft 124kts
28-Aug-20 11:46 34.439177 -118.371040 46 7046ft 124kts
28-Aug-20 11:47 34.460047 -118.337895 46 7053ft 123kts
28-Aug-20 11:48 34.480773 -118.304893 46 7059ft 123kts
28-Aug-20 11:49 34.501465 -118.271897 46 7063ft 122kts
28-Aug-20 11:50 34.521948 -118.239200 46 7067ft 121kts
28-Aug-20 11:51 34.542382 -118.206533 46 7070ft 121kts
28-Aug-20 11:52 34.563020 -118.173489 46 6972ft 121kts
28-Aug-20 11:53 34.583234 -118.141124 46 6976ft 120kts
28-Aug-20 11:54 34.603366 -118.108860 46 6978ft 120kts
28-Aug-20 11:55 34.623531 -118.076507 46 6981ft 119kts
28-Aug-20 11:56 34.628034 -118.036120 91 6979ft 126kts
28-Aug-20 11:57 34.625080 -117.993635 93 6977ft 126kts
28-Aug-20 11:58 34.621617 -117.951712 96 6987ft 113kts
28-Aug-20 11:59 34.618688 -117.918257 97 6974ft 95kts
28-Aug-20 12:00 34.615871 -117.886236 97 6973ft 95kts
28-Aug-20 12:01 34.613042 -117.854237 97 6972ft 95kts
28-Aug-20 12:02 34.610192 -117.822236 97 6974ft 95kts
28-Aug-20 12:03 34.607329 -117.790213 97 6978ft 95kts
28-Aug-20 12:04 34.599554 -117.757668 121 6757ft 126kts
28-Aug-20 12:06 34.579902 -117.718697 121 6273ft 137kts
28-Aug-20 12:07 34.560198 -117.679422 120 5778ft 134kts
28-Aug-20 12:08 34.541234 -117.641632 120 5494ft 123kts
28-Aug-20 12:09 34.523481 -117.606266 120 5499ft 122kts
28-Aug-20 12:10 34.505701 -117.570921 120 5500ft 123kts
28-Aug-20 12:11 34.487815 -117.535405 120 5500ft 122kts
28-Aug-20 12:12 34.470052 -117.500166 120 5500ft 122kts
28-Aug-20 12:13 34.452280 -117.464946 120 5500ft 122kts
28-Aug-20 12:14 34.434456 -117.429657 120 5500ft 122kts
28-Aug-20 12:15 34.416579 -117.394298 120 5501ft 122kts
28-Aug-20 12:16 34.398753 -117.359075 120 5501ft 122kts
28-Aug-20 12:17 34.380867 -117.323708 123 5481ft 123kts
28-Aug-20 12:18 34.360705 -117.295284 221 5136ft 104kts
28-Aug-20 12:19 34.377265 -117.296828 41 4336ft 89kts
28-Aug-20 12:20 34.387493 -117.305337 236 3609ft 77kts
28-Aug-20 12:20 34.377162 -117.315735 219 3365ft 24kts
28-Aug-20 12:22 34.375863 -117.316334 122 3367ft 0kts

Navigation Log

Ident Type
Flight plan parsing failed, navigation log unavailable